createdAt,value
2017-10-04T02:55:28.091Z,0.00
2017-10-04T02:56:26.291Z,0.00
2017-10-04T02:57:25.718Z,0.00
2017-10-04T09:07:54.144Z,2435.63
2017-10-04T09:13:12.126Z,3133.13
2017-10-04T09:14:12.829Z,1833.75
2017-10-04T09:15:12.483Z,1878.75
2017-10-04T09:16:12.434Z,1513.13
2017-10-04T09:17:12.937Z,1721.25
2017-10-04T09:18:11.867Z,1676.25
2017-10-04T09:21:22.230Z,1400.63
2017-10-04T09:22:11.102Z,3285.00
2017-10-04T09:23:10.136Z,3330.00
2017-10-04T09:24:11.100Z,2497.50
2017-10-04T09:25:11.589Z,1260.00
2017-10-04T09:26:11.090Z,1096.88
2017-10-04T09:27:11.092Z,1080.00
2017-10-04T09:28:09.985Z,1260.00
2017-10-04T09:29:10.497Z,2255.63
2017-10-04T09:30:10.612Z,2767.50
2017-10-04T09:31:09.902Z,2148.75
2017-10-04T09:32:10.387Z,1867.50
2017-10-04T09:33:10.365Z,1608.75
2017-10-04T09:34:10.339Z,1935.00
2017-10-04T09:35:09.643Z,4190.63
2017-10-04T09:36:09.530Z,1788.75
2017-10-04T09:37:09.351Z,1687.50
2017-10-04T09:38:09.250Z,2880.00
2017-10-04T09:39:09.325Z,1890.00
2017-10-04T09:40:19.407Z,1620.00
2017-10-04T09:42:04.855Z,2497.50
2017-10-04T09:43:04.409Z,1822.50
2017-10-04T09:44:57.338Z,2936.25
2017-10-04T09:45:57.295Z,3279.38
2017-10-04T09:46:57.327Z,4533.75
2017-10-04T09:47:57.828Z,2705.63
2017-10-04T09:48:57.322Z,2103.75
2017-10-04T09:49:56.825Z,2075.63
2017-10-04T09:50:56.235Z,2109.38
2017-10-04T09:51:56.856Z,2165.63
2017-10-04T09:52:56.686Z,3408.75
2017-10-04T09:53:56.683Z,1951.88
2017-10-04T09:54:56.858Z,1749.38
2017-10-04T09:55:56.608Z,2458.13
2017-10-04T09:56:56.016Z,2216.25
2017-10-04T09:57:56.518Z,2345.63
2017-10-04T09:58:55.901Z,2874.38
2017-10-04T09:59:57.339Z,2587.50
2017-10-04T10:00:55.934Z,1732.50
2017-10-04T10:01:56.804Z,1698.75
2017-10-04T10:02:57.342Z,1794.38
2017-10-04T10:03:56.850Z,1951.88
2017-10-04T10:04:56.356Z,1968.75
2017-10-04T10:05:56.306Z,2266.88
2017-10-04T10:06:56.266Z,2272.50
2017-10-04T10:07:56.227Z,2413.13
2017-10-04T10:08:56.833Z,3965.63
2017-10-04T10:09:56.337Z,2323.13
2017-10-04T10:10:56.346Z,2013.75
2017-10-04T10:11:56.307Z,1996.88
2017-10-04T10:12:55.541Z,2064.38
2017-10-04T10:13:55.440Z,1721.25
2017-10-04T10:14:55.481Z,1625.63
2017-10-04T10:15:56.809Z,1603.13
2017-10-04T10:16:56.334Z,1738.13
2017-10-04T10:17:55.839Z,1850.63
2017-10-04T10:18:56.911Z,1541.25
2017-10-04T10:19:55.310Z,1434.38
2017-10-04T10:20:56.307Z,1395.00
2017-10-04T10:21:56.301Z,1310.63
2017-10-04T10:22:55.852Z,1276.88
2017-10-04T10:23:55.834Z,1147.50
2017-10-04T10:24:55.587Z,1085.63
2017-10-04T10:25:55.829Z,1231.88
2017-10-04T10:26:56.353Z,1575.00
2017-10-04T10:27:56.638Z,1597.50
2017-10-04T10:28:55.803Z,1518.75
2017-10-04T10:29:55.871Z,1378.13
2017-10-04T10:30:54.941Z,1350.00
2017-10-04T10:31:55.750Z,1434.38
2017-10-04T10:32:56.457Z,1496.25
2017-10-04T10:33:55.386Z,1670.63
2017-10-04T10:34:54.822Z,1468.13
2017-10-04T10:35:54.755Z,1276.88
2017-10-04T10:36:54.769Z,1175.63
2017-10-04T10:37:55.333Z,1400.63
2017-10-04T10:38:54.672Z,1681.88
2017-10-04T10:39:55.186Z,1850.63
2017-10-04T10:40:55.275Z,1833.75
2017-10-04T10:41:54.568Z,2368.13
2017-10-04T10:42:55.093Z,2210.63
2017-10-04T10:43:55.818Z,1822.50
2017-10-04T10:44:54.458Z,2103.75
2017-10-04T10:45:54.399Z,2503.13
2017-10-04T10:46:54.299Z,4201.88
2017-10-04T10:47:55.281Z,3071.25
2017-10-04T10:48:55.328Z,2407.50
2017-10-04T10:49:54.838Z,3105.00
2017-10-04T10:50:54.806Z,3330.00
2017-10-04T10:51:54.859Z,2430.00
2017-10-04T10:52:54.741Z,2761.88
2017-10-04T10:53:54.205Z,2446.88
2017-10-04T10:54:54.163Z,3341.25
2017-10-04T10:55:54.869Z,3324.38
2017-10-04T10:56:54.848Z,2463.75
2017-10-04T10:57:54.069Z,3375.00
2017-10-04T10:58:54.554Z,2716.88
2017-10-04T10:59:54.859Z,4719.38
2017-10-04T11:00:54.877Z,3088.13
2017-10-04T11:01:54.984Z,2576.25
2017-10-04T11:02:54.864Z,5636.25
2017-10-04T11:03:54.868Z,5096.25
2017-10-04T11:04:54.358Z,3043.13
2017-10-04T11:05:54.382Z,4730.63
2017-10-04T11:06:54.337Z,3121.88
2017-10-04T11:07:54.759Z,3971.25
2017-10-04T11:08:54.217Z,3493.13
2017-10-04T11:09:54.160Z,2593.13
2017-10-04T11:10:54.080Z,2103.75
2017-10-04T11:11:54.177Z,1867.50
2017-10-04T11:12:53.571Z,2115.00
2017-10-04T11:13:54.080Z,2306.25
2017-10-04T11:14:54.077Z,2272.50
2017-10-04T11:15:54.066Z,2126.25
2017-10-04T11:16:54.338Z,1963.13
2017-10-04T11:17:53.960Z,1766.25
2017-10-04T11:18:53.972Z,1800.00
2017-10-04T11:19:53.934Z,2047.50
2017-10-04T11:20:54.381Z,1738.13
2017-10-04T11:21:54.850Z,1552.50
2017-10-04T11:22:54.312Z,1788.75
2017-10-04T11:23:54.864Z,2345.63
2017-10-04T11:24:53.789Z,2818.13
2017-10-04T11:25:53.751Z,5124.38
2017-10-04T11:26:53.872Z,4978.13
2017-10-04T11:27:53.666Z,2728.13
2017-10-04T11:28:54.173Z,3403.13
2017-10-04T11:29:53.087Z,2615.63
2017-10-04T11:30:53.870Z,2874.38
2017-10-04T11:31:52.973Z,1771.88
2017-10-04T11:32:53.500Z,1530.00
2017-10-04T11:33:53.872Z,1591.88
2017-10-04T11:34:52.959Z,1681.88
2017-10-04T11:35:53.393Z,1636.88
2017-10-04T11:36:53.848Z,1749.38
2017-10-04T11:37:53.352Z,2238.75
2017-10-04T11:38:53.335Z,2621.25
2017-10-04T11:39:53.326Z,2880.00
2017-10-04T11:40:53.403Z,2700.00
2017-10-04T11:41:53.242Z,2638.13
2017-10-04T11:42:52.730Z,2508.75
2017-10-04T11:43:52.378Z,2553.75
2017-10-04T11:44:52.161Z,2334.38
2017-10-04T11:45:52.125Z,2497.50
2017-10-04T11:46:52.102Z,2233.13
2017-10-04T11:47:52.073Z,2216.25
2017-10-04T11:48:52.041Z,2092.50
2017-10-04T11:49:51.990Z,1980.00
2017-10-04T11:50:51.972Z,1608.75
2017-10-04T11:51:51.946Z,1766.25
2017-10-04T11:52:51.909Z,1850.63
2017-10-04T11:53:51.875Z,1985.63
2017-10-04T11:54:51.867Z,1828.13
2017-10-04T11:55:51.809Z,1732.50
2017-10-04T11:56:51.784Z,1895.63
2017-10-04T11:57:51.737Z,1541.25
2017-10-04T11:58:51.737Z,1580.63
2017-10-04T11:59:51.693Z,1434.38
2017-10-04T12:00:51.646Z,1681.88
2017-10-04T12:01:51.626Z,1541.25
2017-10-04T12:02:51.570Z,2086.88
2017-10-04T12:03:51.551Z,1681.88
2017-10-04T12:04:51.491Z,1575.00
2017-10-04T12:05:51.459Z,1833.75
2017-10-04T12:06:51.425Z,1850.63
2017-10-04T12:07:51.410Z,1884.38
2017-10-04T12:08:51.365Z,1856.25
2017-10-04T12:09:51.348Z,1816.88
2017-10-04T12:10:51.294Z,1811.25
2017-10-04T12:11:51.314Z,1704.38
2017-10-04T12:12:51.226Z,1518.75
2017-10-04T12:13:51.215Z,1417.50
2017-10-04T12:14:51.205Z,1642.50
2017-10-04T12:15:51.176Z,2002.50
2017-10-04T12:16:51.093Z,2126.25
2017-10-04T12:17:51.090Z,2193.75
2017-10-04T12:18:51.042Z,2041.88
2017-10-04T12:19:51.002Z,1991.25
2017-10-04T12:20:50.957Z,1985.63
2017-10-04T12:21:50.929Z,1940.63
2017-10-04T12:22:50.904Z,1901.25
2017-10-04T12:23:50.889Z,1856.25
2017-10-04T12:24:50.828Z,1805.63
2017-10-04T12:25:50.839Z,1743.75
2017-10-04T12:26:50.773Z,1811.25
2017-10-04T12:27:50.720Z,1901.25
2017-10-04T12:28:50.696Z,1980.00
2017-10-04T12:29:50.660Z,1906.88
2017-10-04T12:30:50.649Z,1839.38
2017-10-04T12:31:50.600Z,1856.25
2017-10-04T12:32:50.613Z,1794.38
2017-10-04T12:33:50.621Z,1760.63
2017-10-04T12:34:50.492Z,1749.38
2017-10-04T12:35:50.478Z,1766.25
2017-10-04T12:36:50.573Z,1749.38
2017-10-04T12:37:50.430Z,1822.50
2017-10-04T12:38:50.348Z,1822.50
2017-10-04T12:39:50.315Z,1833.75
2017-10-04T12:40:50.281Z,1833.75
2017-10-04T12:41:50.282Z,1816.88
2017-10-04T12:42:50.211Z,1788.75
2017-10-04T12:43:50.212Z,1743.75
2017-10-04T12:44:50.173Z,1687.50
2017-10-04T12:45:50.139Z,1625.63
2017-10-04T12:46:50.136Z,1597.50
2017-10-04T12:47:50.049Z,1575.00
2017-10-04T12:48:50.061Z,1563.75
2017-10-04T12:49:49.975Z,1569.38
2017-10-04T12:50:49.948Z,1501.88
2017-10-04T12:51:49.919Z,1462.50
2017-10-04T12:52:49.878Z,1558.13
2017-10-04T12:53:49.890Z,1608.75
2017-10-04T12:54:49.820Z,1642.50
2017-10-04T12:55:49.865Z,1771.88
2017-10-04T12:56:49.763Z,1946.25
2017-10-04T12:57:49.726Z,1940.63
2017-10-04T12:58:49.694Z,1963.13
2017-10-04T12:59:49.644Z,1867.50
2017-10-04T13:00:49.610Z,1980.00
2017-10-04T13:01:49.594Z,1906.88
2017-10-04T13:02:49.557Z,1890.00
2017-10-04T13:03:49.535Z,1856.25
2017-10-04T13:04:49.480Z,1721.25
2017-10-04T13:05:49.458Z,1738.13
2017-10-04T13:06:49.438Z,1552.50
2017-10-04T13:07:49.379Z,1558.13
2017-10-04T13:08:49.346Z,1569.38
2017-10-04T13:09:49.314Z,1552.50
2017-10-04T13:10:49.268Z,1535.63
2017-10-04T13:11:49.265Z,1513.13
2017-10-04T13:12:49.225Z,1468.13
2017-10-04T13:13:49.196Z,1406.25
2017-10-04T13:14:49.153Z,1406.25
2017-10-04T13:15:49.165Z,1417.50
2017-10-04T13:16:49.112Z,1440.00
2017-10-04T13:17:49.041Z,1473.75
2017-10-04T13:18:49.024Z,1496.25
2017-10-04T13:19:48.974Z,1445.63
2017-10-04T13:20:48.939Z,1417.50
2017-10-04T13:21:48.909Z,1395.00
2017-10-04T13:22:48.876Z,1451.25
2017-10-04T13:23:48.871Z,1530.00
2017-10-04T13:24:48.798Z,1479.38
2017-10-04T13:25:48.778Z,1541.25
2017-10-04T13:26:48.734Z,1642.50
2017-10-04T13:27:48.717Z,2559.38
2017-10-04T13:28:48.683Z,1698.75
2017-10-04T13:29:48.755Z,1530.00
2017-10-04T13:30:48.629Z,1456.88
2017-10-04T13:31:48.617Z,1417.50
2017-10-04T13:32:48.536Z,1389.38
2017-10-04T13:33:48.497Z,1338.75
2017-10-04T13:34:48.470Z,1293.75
2017-10-04T13:35:48.481Z,1265.63
2017-10-04T13:36:48.462Z,1248.75
2017-10-04T13:37:48.368Z,1305.00
2017-10-04T13:38:48.329Z,1344.38
2017-10-04T13:39:48.305Z,1372.50
2017-10-04T13:40:48.264Z,1350.00
2017-10-04T13:41:48.225Z,1293.75
2017-10-04T13:42:48.213Z,1254.38
2017-10-04T13:43:48.158Z,1231.88
2017-10-04T13:44:48.138Z,1220.63
2017-10-04T13:45:48.145Z,1198.13
2017-10-04T13:46:48.084Z,1175.63
2017-10-04T13:47:48.066Z,1170.00
2017-10-04T13:48:47.995Z,1153.13
2017-10-04T13:49:47.980Z,1158.75
2017-10-04T13:50:47.917Z,1203.75
2017-10-04T13:51:47.893Z,1237.50
2017-10-04T13:52:47.854Z,1265.63
2017-10-04T13:53:47.878Z,1271.25
2017-10-04T13:54:47.782Z,1265.63
2017-10-04T13:55:47.747Z,1265.63
2017-10-04T13:56:47.756Z,1305.00
2017-10-04T13:57:47.709Z,1338.75
2017-10-04T13:58:47.652Z,1338.75
2017-10-04T13:59:47.606Z,1316.25
2017-10-04T14:00:47.585Z,1316.25
2017-10-04T14:01:47.583Z,1305.00
2017-10-04T14:02:47.517Z,1276.88
2017-10-04T14:03:47.506Z,1231.88
2017-10-04T14:04:47.447Z,1203.75
2017-10-04T14:05:47.414Z,1198.13
2017-10-04T14:06:47.374Z,1209.38
2017-10-04T14:07:47.357Z,1186.88
2017-10-04T14:08:47.308Z,1170.00
2017-10-04T14:09:47.272Z,1153.13
2017-10-04T14:10:47.262Z,1130.63
2017-10-04T14:11:47.209Z,1091.25
2017-10-04T14:12:47.154Z,1051.88
2017-10-04T14:13:47.143Z,1029.38
2017-10-04T14:14:47.100Z,1029.38
2017-10-04T14:15:47.057Z,1029.38
2017-10-04T14:16:47.025Z,1029.38
2017-10-04T14:17:46.985Z,1046.25
2017-10-04T14:18:46.958Z,1051.88
2017-10-04T14:19:46.966Z,1035.00
2017-10-04T14:20:46.888Z,1012.50
2017-10-04T14:21:46.851Z,1001.25
2017-10-04T14:22:46.818Z,990.00
2017-10-04T14:23:46.786Z,978.75
2017-10-04T14:24:46.769Z,961.88
2017-10-04T14:25:46.717Z,905.63
2017-10-04T14:26:46.679Z,849.38
2017-10-04T14:27:46.657Z,832.50
2017-10-04T14:28:46.630Z,826.88
2017-10-04T14:29:46.582Z,849.38
2017-10-04T14:31:07.288Z,900.00
2017-10-04T14:31:46.992Z,939.38
2017-10-04T14:32:46.954Z,945.00
2017-10-04T14:33:47.404Z,961.88
2017-10-04T14:34:49.925Z,978.75
2017-10-04T14:35:47.394Z,1001.25
2017-10-04T14:36:46.727Z,1001.25
2017-10-04T14:37:47.317Z,1012.50
2017-10-04T14:38:46.727Z,1006.88
2017-10-04T14:39:46.671Z,995.63
2017-10-04T14:40:46.620Z,973.13
2017-10-04T14:41:47.186Z,945.00
2017-10-04T14:42:46.600Z,905.63
2017-10-04T14:43:47.029Z,877.50
2017-10-04T14:44:47.059Z,860.63
2017-10-04T14:45:46.462Z,871.88
2017-10-04T14:46:46.430Z,877.50
2017-10-04T14:47:46.425Z,900.00
2017-10-04T14:48:46.959Z,911.25
2017-10-04T14:49:46.820Z,916.88
2017-10-04T14:50:46.335Z,894.38
2017-10-04T14:51:46.809Z,843.75
2017-10-04T14:52:46.647Z,804.38
2017-10-04T14:53:46.617Z,781.88
2017-10-04T14:54:46.910Z,759.38
2017-10-04T14:55:46.046Z,742.50
2017-10-04T14:56:46.621Z,708.75
2017-10-04T14:57:46.018Z,663.75
2017-10-04T14:58:46.050Z,624.38
2017-10-04T14:59:45.966Z,573.75
2017-10-04T15:00:45.765Z,540.00
2017-10-04T15:01:45.448Z,517.50
2017-10-04T15:02:45.435Z,461.25
2017-10-04T15:03:45.401Z,405.00
2017-10-04T15:04:45.384Z,382.50
2017-10-04T15:05:45.312Z,410.63
2017-10-04T15:06:45.283Z,438.75
2017-10-04T15:07:45.287Z,427.50
2017-10-04T15:08:45.277Z,382.50
2017-10-04T15:09:45.170Z,348.75
2017-10-04T15:10:45.181Z,315.00
2017-10-04T15:11:45.109Z,286.88
2017-10-04T15:12:45.067Z,275.63
2017-10-04T15:13:45.068Z,270.00
2017-10-04T15:14:44.982Z,264.38
2017-10-04T15:15:44.952Z,264.38
2017-10-04T15:16:44.911Z,258.75
2017-10-04T15:17:44.911Z,270.00
2017-10-04T15:18:44.839Z,281.25
2017-10-04T15:19:44.829Z,286.88
2017-10-04T15:20:44.766Z,315.00
2017-10-04T15:21:44.780Z,343.13
2017-10-04T15:22:44.703Z,365.63
2017-10-04T15:23:44.707Z,382.50
2017-10-04T15:24:44.631Z,382.50
2017-10-04T15:25:44.596Z,388.13
2017-10-04T15:26:44.557Z,382.50
2017-10-04T15:27:44.524Z,365.63
2017-10-04T15:28:44.481Z,320.63
2017-10-04T15:29:44.474Z,264.38
2017-10-04T15:30:44.415Z,208.13
2017-10-04T15:31:44.381Z,163.13
2017-10-04T15:32:44.408Z,157.50
2017-10-04T15:33:44.749Z,191.25
2017-10-04T15:34:44.269Z,213.75
2017-10-04T15:35:44.247Z,213.75
2017-10-04T15:36:44.191Z,213.75
2017-10-04T15:37:44.161Z,236.25
2017-10-04T15:38:44.131Z,241.88
2017-10-04T15:39:44.095Z,230.63
2017-10-04T15:40:44.064Z,230.63
2017-10-04T15:41:44.015Z,241.88
2017-10-04T15:42:43.986Z,230.63
2017-10-04T15:43:43.973Z,208.13
2017-10-04T15:44:43.940Z,185.63
2017-10-04T15:45:43.909Z,168.75
2017-10-04T15:46:43.857Z,157.50
2017-10-04T15:47:43.845Z,151.88
2017-10-04T15:48:43.822Z,157.50
2017-10-04T15:49:43.771Z,157.50
2017-10-04T15:50:43.684Z,140.63
2017-10-04T15:51:43.666Z,135.00
2017-10-04T15:52:43.644Z,140.63
2017-10-04T15:53:43.574Z,135.00
2017-10-04T15:54:43.569Z,123.75
2017-10-04T15:55:43.538Z,123.75
2017-10-04T15:56:43.470Z,123.75
2017-10-04T15:57:43.448Z,129.38
2017-10-04T15:58:43.403Z,135.00
2017-10-04T15:59:43.357Z,135.00
2017-10-04T16:00:43.319Z,129.38
2017-10-04T16:01:43.297Z,129.38
2017-10-04T16:02:43.243Z,129.38
2017-10-04T16:03:43.219Z,129.38
2017-10-04T16:04:43.171Z,129.38
2017-10-04T16:05:43.202Z,129.38
2017-10-04T16:06:43.107Z,123.75
2017-10-04T16:07:43.057Z,123.75
2017-10-04T16:08:43.024Z,112.50
2017-10-04T16:09:42.981Z,112.50
2017-10-04T16:10:42.947Z,112.50
2017-10-04T16:11:42.909Z,95.63
2017-10-04T16:12:42.877Z,90.00
2017-10-04T16:13:53.475Z,95.63
2017-10-04T16:14:43.995Z,101.25
2017-10-04T16:15:43.759Z,101.25
2017-10-04T16:16:43.985Z,101.25
2017-10-04T16:17:43.163Z,95.63
2017-10-04T16:18:43.955Z,90.00
2017-10-04T16:19:44.526Z,84.38
2017-10-04T16:20:43.016Z,78.75
2017-10-04T16:21:43.453Z,78.75
2017-10-04T16:22:44.002Z,73.13
2017-10-04T16:23:42.908Z,67.50
2017-10-04T16:24:43.460Z,61.88
2017-10-04T16:25:42.905Z,56.25
2017-10-04T16:26:42.863Z,50.63
2017-10-04T16:27:42.823Z,45.00
2017-10-04T16:28:43.529Z,45.00
2017-10-04T16:29:43.499Z,39.38
2017-10-04T16:30:42.417Z,33.75
2017-10-04T16:31:42.220Z,33.75
2017-10-04T16:32:42.246Z,28.13
2017-10-04T16:33:42.092Z,28.13
2017-10-04T16:34:42.053Z,28.13
2017-10-04T16:35:42.062Z,28.13
2017-10-04T16:36:42.018Z,22.50
2017-10-04T16:37:41.944Z,22.50
2017-10-04T16:38:41.912Z,22.50
2017-10-04T16:39:41.881Z,16.88
2017-10-04T16:40:41.844Z,16.88
2017-10-04T16:41:41.839Z,16.88
2017-10-04T16:42:41.768Z,11.25
2017-10-04T16:43:41.718Z,11.25
2017-10-04T16:44:41.676Z,11.25
2017-10-04T16:45:41.634Z,11.25
2017-10-04T16:46:41.616Z,11.25
2017-10-04T16:47:41.660Z,5.63
2017-10-04T16:48:41.526Z,5.63
2017-10-04T16:49:41.488Z,5.63
2017-10-04T16:50:41.454Z,5.63
2017-10-04T16:51:41.415Z,5.63
2017-10-04T16:52:41.370Z,5.63
2017-10-04T16:53:41.387Z,0.00
2017-10-04T16:54:41.305Z,0.00
2017-10-04T16:55:41.281Z,0.00
2017-10-04T16:56:41.274Z,0.00
2017-10-04T16:57:41.199Z,0.00
2017-10-04T16:58:41.150Z,0.00
2017-10-04T16:59:41.166Z,0.00
2017-10-04T17:00:41.093Z,0.00
2017-10-04T17:01:41.030Z,0.00
2017-10-04T17:02:41.035Z,0.00
2017-10-04T17:03:40.961Z,0.00
2017-10-04T17:04:40.929Z,0.00
2017-10-04T17:05:40.893Z,0.00
2017-10-04T17:06:40.850Z,0.00
2017-10-04T17:07:40.828Z,0.00
2017-10-04T17:08:40.768Z,0.00
2017-10-04T17:09:40.734Z,0.00
2017-10-04T17:10:40.692Z,0.00
2017-10-04T17:11:40.667Z,0.00
2017-10-04T17:12:40.640Z,0.00
2017-10-04T17:13:40.591Z,0.00
2017-10-04T17:14:40.594Z,0.00
2017-10-04T17:15:40.522Z,0.00
2017-10-04T17:16:40.476Z,0.00
2017-10-04T17:17:40.471Z,0.00
2017-10-04T17:18:40.412Z,0.00
2017-10-04T17:19:40.370Z,0.00
2017-10-04T17:20:40.334Z,0.00
2017-10-04T17:21:40.302Z,0.00
2017-10-04T17:22:40.240Z,0.00
2017-10-04T17:23:40.204Z,0.00
2017-10-04T17:24:40.162Z,0.00
2017-10-04T17:25:40.116Z,0.00
2017-10-04T17:26:40.085Z,0.00
2017-10-04T17:27:40.047Z,0.00
2017-10-04T17:28:40.017Z,0.00
2017-10-04T17:29:39.977Z,0.00
2017-10-04T17:30:39.933Z,0.00
2017-10-04T17:31:39.893Z,0.00
2017-10-04T17:32:39.874Z,0.00
2017-10-04T17:33:39.823Z,0.00
2017-10-04T17:34:39.780Z,0.00
2017-10-04T17:35:39.749Z,0.00
2017-10-04T17:36:39.699Z,0.00
2017-10-04T17:37:39.660Z,0.00
2017-10-04T17:38:39.627Z,0.00
2017-10-04T17:39:39.630Z,0.00
2017-10-04T17:40:39.560Z,0.00
2017-10-04T17:41:39.516Z,0.00
2017-10-04T17:42:39.481Z,0.00
2017-10-04T17:43:39.530Z,0.00
2017-10-04T17:44:39.404Z,0.00
2017-10-04T17:45:39.386Z,0.00
2017-10-04T17:46:39.367Z,0.00
2017-10-04T17:47:39.282Z,0.00
2017-10-04T17:48:39.249Z,0.00
2017-10-04T17:49:39.219Z,0.00
2017-10-04T17:50:39.184Z,0.00
2017-10-04T17:51:39.253Z,0.00
2017-10-04T17:52:39.108Z,0.00
2017-10-04T17:53:39.058Z,0.00
2017-10-04T17:54:39.085Z,0.00
2017-10-04T17:55:39.042Z,0.00
2017-10-04T17:56:39.053Z,0.00
2017-10-04T17:57:38.912Z,0.00
2017-10-04T17:58:38.878Z,0.00
2017-10-04T17:59:38.839Z,0.00
2017-10-04T18:00:38.894Z,0.00
2017-10-04T18:01:38.758Z,0.00
2017-10-04T18:02:38.744Z,0.00
2017-10-04T18:03:38.691Z,0.00
2017-10-04T18:04:38.660Z,0.00
2017-10-04T18:07:11.980Z,0.00
2017-10-04T18:08:10.964Z,0.00
2017-10-04T18:10:04.206Z,0.00
2017-10-04T18:11:03.553Z,0.00
2017-10-04T18:12:56.911Z,0.00
2017-10-04T18:13:56.565Z,0.00
2017-10-04T18:14:57.620Z,0.00
2017-10-04T18:15:56.507Z,0.00
2017-10-04T18:17:05.126Z,0.00
2017-10-04T18:18:50.232Z,0.00
2017-10-04T18:19:49.270Z,0.00
2017-10-04T18:21:42.582Z,0.00
2017-10-04T18:22:42.613Z,0.00
2017-10-04T18:24:35.018Z,0.00
2017-10-04T18:25:34.882Z,0.00
2017-10-04T18:27:28.460Z,0.00
2017-10-04T18:28:27.650Z,0.00
2017-10-04T18:30:21.036Z,0.00
2017-10-04T18:31:20.339Z,0.00
2017-10-04T18:33:13.342Z,0.00
2017-10-04T18:34:13.680Z,0.00
2017-10-04T18:36:06.645Z,0.00
2017-10-04T18:37:05.931Z,0.00
2017-10-04T18:38:59.350Z,0.00
2017-10-04T18:39:58.689Z,0.00
2017-10-04T18:41:52.575Z,0.00
2017-10-04T18:42:53.095Z,0.00
2017-10-04T18:44:45.316Z,0.00
2017-10-04T18:45:44.340Z,0.00
2017-10-04T18:47:37.808Z,0.00
2017-10-04T18:48:37.162Z,0.00
2017-10-04T18:50:30.705Z,0.00
2017-10-04T18:51:30.108Z,0.00
2017-10-04T18:53:23.234Z,0.00
2017-10-04T18:54:23.911Z,0.00
2017-10-04T18:56:16.758Z,0.00
2017-10-04T18:57:15.702Z,0.00
2017-10-04T18:59:10.011Z,0.00
2017-10-04T19:00:08.479Z,0.00
2017-10-04T19:02:01.266Z,0.00
2017-10-04T19:03:01.795Z,0.00
2017-10-04T19:04:54.738Z,0.00
2017-10-04T19:05:55.111Z,0.00
2017-10-04T19:07:47.113Z,0.00
2017-10-04T19:08:48.358Z,0.00
2017-10-04T19:10:40.300Z,0.00
2017-10-04T19:11:43.444Z,0.00
2017-10-04T19:12:41.199Z,0.00
2017-10-04T19:13:39.674Z,0.00
2017-10-04T19:14:39.480Z,0.00
2017-10-04T19:15:39.335Z,0.00
2017-10-04T19:16:39.501Z,0.00
2017-10-04T19:17:39.656Z,0.00
2017-10-04T19:18:40.707Z,0.00
2017-10-04T19:21:11.580Z,0.00
2017-10-04T19:22:11.337Z,0.00
2017-10-04T19:24:05.209Z,0.00
2017-10-04T19:25:06.217Z,0.00
2017-10-04T19:26:05.088Z,0.00
2017-10-04T19:27:04.575Z,0.00
2017-10-04T19:28:04.511Z,0.00
2017-10-04T19:29:04.927Z,0.00
2017-10-04T19:30:04.465Z,0.00
2017-10-04T19:31:04.293Z,0.00
2017-10-04T19:32:04.384Z,0.00
2017-10-04T19:33:04.346Z,0.00
2017-10-04T19:34:04.261Z,0.00
2017-10-04T19:35:04.133Z,0.00
2017-10-04T19:36:04.188Z,0.00
2017-10-04T19:37:04.606Z,0.00
2017-10-04T19:38:04.154Z,0.00
2017-10-04T19:39:04.609Z,0.00
2017-10-04T19:40:04.033Z,0.00
2017-10-04T19:41:03.988Z,0.00
2017-10-04T19:42:03.902Z,0.00
2017-10-04T19:43:03.970Z,0.00
2017-10-04T19:44:04.622Z,0.00
2017-10-04T19:45:03.853Z,0.00
2017-10-04T19:46:03.806Z,0.00
2017-10-04T19:47:03.487Z,0.00
2017-10-04T19:48:03.277Z,0.00
2017-10-04T19:49:03.218Z,0.00
2017-10-04T19:50:03.196Z,0.00
2017-10-04T19:51:03.142Z,0.00
2017-10-04T19:52:03.123Z,0.00
2017-10-04T19:53:03.080Z,0.00
2017-10-04T19:54:03.053Z,0.00
2017-10-04T19:55:03.053Z,0.00
2017-10-04T19:56:02.975Z,0.00
2017-10-04T19:57:02.925Z,0.00
2017-10-04T19:58:02.923Z,0.00
2017-10-04T19:59:02.847Z,0.00
2017-10-04T20:00:02.821Z,0.00
2017-10-04T20:01:02.804Z,0.00
2017-10-04T20:02:02.754Z,0.00
2017-10-04T20:03:02.691Z,0.00
2017-10-04T20:04:02.655Z,0.00
2017-10-04T20:05:02.658Z,0.00
2017-10-04T20:06:02.584Z,0.00
2017-10-04T20:07:02.534Z,0.00
2017-10-04T20:08:02.516Z,0.00
2017-10-04T20:09:02.463Z,0.00
2017-10-04T20:10:02.448Z,0.00
2017-10-04T20:11:02.414Z,0.00
2017-10-04T20:12:02.344Z,0.00
2017-10-04T20:13:02.308Z,0.00
2017-10-04T20:14:02.271Z,0.00
2017-10-04T20:15:02.223Z,0.00
2017-10-04T20:16:02.187Z,0.00
2017-10-04T20:17:02.147Z,0.00
2017-10-04T20:18:02.114Z,0.00
2017-10-04T20:19:02.066Z,0.00
2017-10-04T20:20:02.052Z,0.00
2017-10-04T20:21:02.010Z,0.00
2017-10-04T20:22:01.962Z,0.00
2017-10-04T20:23:01.947Z,0.00
2017-10-04T20:24:01.903Z,0.00
2017-10-04T20:25:01.836Z,0.00
2017-10-04T20:26:01.807Z,0.00
2017-10-04T20:27:01.778Z,0.00
2017-10-04T20:28:01.750Z,0.00
2017-10-04T20:29:01.711Z,0.00
2017-10-04T20:30:01.685Z,0.00
2017-10-04T20:31:01.633Z,0.00
2017-10-04T20:32:01.569Z,0.00
2017-10-04T20:33:01.532Z,0.00
2017-10-04T20:34:01.496Z,0.00
2017-10-04T20:35:01.520Z,0.00
2017-10-04T20:36:01.520Z,0.00
2017-10-04T20:37:01.388Z,0.00
2017-10-04T20:38:01.362Z,0.00
2017-10-04T20:39:01.324Z,0.00
2017-10-04T20:40:01.266Z,0.00
2017-10-04T20:41:01.230Z,0.00
2017-10-04T20:42:01.188Z,0.00
2017-10-04T20:43:01.144Z,0.00
2017-10-04T20:44:01.111Z,0.00
2017-10-04T20:45:01.068Z,0.00
2017-10-04T20:46:01.049Z,0.00
2017-10-04T20:47:00.994Z,0.00
2017-10-04T20:48:00.995Z,0.00
2017-10-04T20:49:00.913Z,0.00
2017-10-04T20:50:00.883Z,0.00
2017-10-04T20:51:00.863Z,0.00
2017-10-04T20:52:00.803Z,0.00
2017-10-04T20:53:00.759Z,0.00
2017-10-04T20:54:00.729Z,0.00
2017-10-04T20:55:00.682Z,0.00
2017-10-04T20:56:00.651Z,0.00
2017-10-04T20:57:00.633Z,0.00
2017-10-04T20:58:00.634Z,0.00
2017-10-04T20:59:00.538Z,0.00
2017-10-04T21:00:00.549Z,0.00
2017-10-04T21:01:00.452Z,0.00
2017-10-04T21:02:00.417Z,0.00
2017-10-04T21:03:00.434Z,0.00
2017-10-04T21:04:00.335Z,0.00
2017-10-04T21:05:00.306Z,0.00
2017-10-04T21:06:00.265Z,0.00
2017-10-04T21:07:00.228Z,0.00
2017-10-04T21:08:00.205Z,0.00
2017-10-04T21:09:00.208Z,0.00
2017-10-04T21:10:00.139Z,0.00
2017-10-04T21:11:00.139Z,0.00
2017-10-04T21:12:00.039Z,0.00
2017-10-04T21:13:00.040Z,0.00
2017-10-04T21:13:59.960Z,0.00
2017-10-04T21:14:59.916Z,0.00
2017-10-04T21:15:59.880Z,0.00
2017-10-04T21:16:59.844Z,0.00
2017-10-04T21:17:59.809Z,0.00
2017-10-04T21:18:59.767Z,0.00
2017-10-04T21:19:59.732Z,0.00
2017-10-04T21:20:59.694Z,0.00
2017-10-04T21:21:59.680Z,0.00
2017-10-04T21:22:59.614Z,0.00
2017-10-04T21:23:59.582Z,0.00
2017-10-04T21:24:59.550Z,0.00
2017-10-04T21:25:59.523Z,0.00
2017-10-04T21:26:59.464Z,0.00
2017-10-04T21:27:59.445Z,0.00
2017-10-04T21:28:59.418Z,0.00
2017-10-04T21:29:59.345Z,0.00
2017-10-04T21:30:59.324Z,0.00
2017-10-04T21:31:59.294Z,0.00
2017-10-04T21:32:59.234Z,0.00
2017-10-04T21:33:59.237Z,0.00
2017-10-04T21:34:59.169Z,0.00
2017-10-04T21:35:59.110Z,0.00
2017-10-04T21:36:59.087Z,0.00
2017-10-04T21:37:59.032Z,0.00
2017-10-04T21:38:59.034Z,0.00
2017-10-04T21:39:58.959Z,0.00
2017-10-04T21:40:58.954Z,0.00
2017-10-04T21:41:58.885Z,0.00
2017-10-04T21:42:58.842Z,0.00
2017-10-04T21:43:58.808Z,0.00
2017-10-04T21:44:58.764Z,0.00
2017-10-04T21:45:58.730Z,0.00
2017-10-04T21:46:58.730Z,0.00
2017-10-04T21:47:58.667Z,0.00
2017-10-04T21:48:58.619Z,0.00
2017-10-04T21:49:58.605Z,0.00
2017-10-04T21:50:58.537Z,0.00
2017-10-04T21:51:58.563Z,0.00
2017-10-04T21:52:58.519Z,0.00
2017-10-04T21:53:58.427Z,0.00
2017-10-04T21:54:58.421Z,0.00
2017-10-04T21:55:58.352Z,0.00
2017-10-04T21:56:58.314Z,0.00
2017-10-04T21:57:58.269Z,0.00
2017-10-04T21:58:58.233Z,0.00
2017-10-04T21:59:58.218Z,0.00
2017-10-04T22:00:58.199Z,0.00
2017-10-04T22:01:58.123Z,0.00
2017-10-04T22:02:58.079Z,0.00
2017-10-04T22:03:58.053Z,0.00
2017-10-04T22:04:58.016Z,0.00
2017-10-04T22:05:57.971Z,0.00
2017-10-04T22:06:57.926Z,0.00
2017-10-04T22:07:57.894Z,0.00
2017-10-04T22:08:57.840Z,0.00
2017-10-04T22:09:57.805Z,0.00
2017-10-04T22:10:57.793Z,0.00
2017-10-04T22:11:57.733Z,0.00
2017-10-04T22:12:57.710Z,0.00
2017-10-04T22:13:57.655Z,0.00